sensor_id;sensor_type;location;lat;lon;timestamp;pressure;altitude;pressure_sealevel;temperature;humidity
13581;BME280;6861;46.170;7.222;2023-02-04T00:00:25;97504.72;;;5.79;52.75
13581;BME280;6861;46.170;7.222;2023-02-04T00:02:55;97507.09;;;5.74;52.01
13581;BME280;6861;46.170;7.222;2023-02-04T00:05:23;97503.88;;;5.66;52.94
13581;BME280;6861;46.170;7.222;2023-02-04T00:07:52;97503.03;;;5.58;52.32
13581;BME280;6861;46.170;7.222;2023-02-04T00:10:20;97501.44;;;5.57;52.67
13581;BME280;6861;46.170;7.222;2023-02-04T00:12:48;97512.25;;;5.61;52.80
13581;BME280;6861;46.170;7.222;2023-02-04T00:15:17;97515.25;;;5.65;52.96
13581;BME280;6861;46.170;7.222;2023-02-04T00:17:45;97501.06;;;5.67;53.14
13581;BME280;6861;46.170;7.222;2023-02-04T00:20:13;97505.28;;;5.68;52.59
13581;BME280;6861;46.170;7.222;2023-02-04T00:22:41;97516.28;;;5.70;52.42
13581;BME280;6861;46.170;7.222;2023-02-04T00:25:11;97509.09;;;5.72;52.31
13581;BME280;6861;46.170;7.222;2023-02-04T00:27:39;97502.47;;;5.70;52.90
13581;BME280;6861;46.170;7.222;2023-02-04T00:30:08;97505.50;;;5.73;52.37
13581;BME280;6861;46.170;7.222;2023-02-04T00:32:36;97518.88;;;5.77;52.94
13581;BME280;6861;46.170;7.222;2023-02-04T00:35:05;97524.09;;;5.77;52.21
13581;BME280;6861;46.170;7.222;2023-02-04T00:37:33;97515.28;;;5.71;53.11
13581;BME280;6861;46.170;7.222;2023-02-04T00:40:01;97518.88;;;5.70;52.24
13581;BME280;6861;46.170;7.222;2023-02-04T00:42:30;97516.56;;;5.41;53.04
13581;BME280;6861;46.170;7.222;2023-02-04T00:44:58;97511.50;;;5.19;53.35
13581;BME280;6861;46.170;7.222;2023-02-04T00:47:26;97511.88;;;5.16;53.44
13581;BME280;6861;46.170;7.222;2023-02-04T00:49:54;97504.28;;;5.15;53.93
13581;BME280;6861;46.170;7.222;2023-02-04T00:52:22;97495.94;;;5.19;53.53
13581;BME280;6861;46.170;7.222;2023-02-04T00:54:50;97494.72;;;5.22;53.59
13581;BME280;6861;46.170;7.222;2023-02-04T00:57:18;97498.31;;;5.27;53.52
13581;BME280;6861;46.170;7.222;2023-02-04T00:59:47;97481.78;;;5.35;53.74
13581;BME280;6861;46.170;7.222;2023-02-04T01:02:15;97478.44;;;5.48;53.66
13581;BME280;6861;46.170;7.222;2023-02-04T01:04:44;97495.66;;;5.55;52.88
13581;BME280;6861;46.170;7.222;2023-02-04T01:07:12;97493.28;;;5.60;52.92
13581;BME280;6861;46.170;7.222;2023-02-04T01:09:40;97481.31;;;5.73;52.75
13581;BME280;6861;46.170;7.222;2023-02-04T01:12:08;97483.94;;;5.79;53.26
13581;BME280;6861;46.170;7.222;2023-02-04T01:14:36;97498.50;;;5.80;52.64
13581;BME280;6861;46.170;7.222;2023-02-04T01:17:06;97491.09;;;5.71;53.49
13581;BME280;6861;46.170;7.222;2023-02-04T01:19:34;97495.84;;;5.54;53.80
13581;BME280;6861;46.170;7.222;2023-02-04T01:22:02;97501.38;;;5.38;53.60
13581;BME280;6861;46.170;7.222;2023-02-04T01:24:30;97501.91;;;5.26;54.37
13581;BME280;6861;46.170;7.222;2023-02-04T01:26:58;97498.22;;;5.01;54.86
13581;BME280;6861;46.170;7.222;2023-02-04T01:29:26;97498.38;;;4.93;54.74
13581;BME280;6861;46.170;7.222;2023-02-04T01:31:54;97485.00;;;4.89;55.34
13581;BME280;6861;46.170;7.222;2023-02-04T01:34:23;97485.78;;;4.90;55.04
13581;BME280;6861;46.170;7.222;2023-02-04T01:36:52;97483.41;;;4.95;55.09
13581;BME280;6861;46.170;7.222;2023-02-04T01:39:20;97477.09;;;5.04;54.79
13581;BME280;6861;46.170;7.222;2023-02-04T01:41:48;97471.13;;;5.10;54.83
13581;BME280;6861;46.170;7.222;2023-02-04T01:44:17;97470.13;;;5.11;54.59
13581;BME280;6861;46.170;7.222;2023-02-04T01:46:45;97468.75;;;5.15;54.66
13581;BME280;6861;46.170;7.222;2023-02-04T01:49:13;97478.75;;;5.18;54.88
13581;BME280;6861;46.170;7.222;2023-02-04T01:51:42;97491.50;;;5.13;54.58
13581;BME280;6861;46.170;7.222;2023-02-04T01:54:11;97494.03;;;5.00;55.08
13581;BME280;6861;46.170;7.222;2023-02-04T01:56:42;97489.78;;;4.92;55.39
13581;BME280;6861;46.170;7.222;2023-02-04T01:59:12;97494.94;;;4.86;55.54
13581;BME280;6861;46.170;7.222;2023-02-04T02:01:43;97500.88;;;4.80;55.80
13581;BME280;6861;46.170;7.222;2023-02-04T02:04:14;97501.69;;;4.80;56.05
13581;BME280;6861;46.170;7.222;2023-02-04T02:06:46;97495.34;;;4.89;55.88
13581;BME280;6861;46.170;7.222;2023-02-04T02:09:17;97483.13;;;5.11;55.21
13581;BME280;6861;46.170;7.222;2023-02-04T02:11:45;97481.97;;;5.34;54.54
13581;BME280;6861;46.170;7.222;2023-02-04T02:14:14;97471.66;;;5.47;54.90
13581;BME280;6861;46.170;7.222;2023-02-04T02:16:42;97454.72;;;5.57;54.79
13581;BME280;6861;46.170;7.222;2023-02-04T02:19:14;97455.53;;;5.71;53.98
13581;BME280;6861;46.170;7.222;2023-02-04T02:21:49;97462.94;;;5.81;54.33
13581;BME280;6861;46.170;7.222;2023-02-04T02:24:27;97459.38;;;5.88;53.61
13581;BME280;6861;46.170;7.222;2023-02-04T02:26:56;97441.41;;;5.94;53.49
13581;BME280;6861;46.170;7.222;2023-02-04T02:29:26;97433.38;;;5.88;54.00
13581;BME280;6861;46.170;7.222;2023-02-04T02:31:55;97422.19;;;5.81;54.01
13581;BME280;6861;46.170;7.222;2023-02-04T02:34:24;97419.38;;;5.76;54.43
13581;BME280;6861;46.170;7.222;2023-02-04T02:36:53;97419.19;;;5.71;54.29
13581;BME280;6861;46.170;7.222;2023-02-04T02:39:22;97417.59;;;5.70;54.35
13581;BME280;6861;46.170;7.222;2023-02-04T02:41:52;97405.59;;;5.69;54.02
13581;BME280;6861;46.170;7.222;2023-02-04T02:44:21;97395.41;;;5.68;54.51
13581;BME280;6861;46.170;7.222;2023-02-04T02:46:49;97401.41;;;5.68;54.07
13581;BME280;6861;46.170;7.222;2023-02-04T02:49:18;97401.41;;;5.68;54.12
13581;BME280;6861;46.170;7.222;2023-02-04T02:51:47;97391.00;;;5.68;54.24
13581;BME280;6861;46.170;7.222;2023-02-04T02:54:21;97381.03;;;5.65;53.95
13581;BME280;6861;46.170;7.222;2023-02-04T02:56:49;97373.22;;;5.65;54.33
13581;BME280;6861;46.170;7.222;2023-02-04T02:59:19;97370.63;;;5.65;54.06
13581;BME280;6861;46.170;7.222;2023-02-04T03:01:49;97379.00;;;5.60;53.91
13581;BME280;6861;46.170;7.222;2023-02-04T03:04:19;97366.44;;;5.64;54.59
13581;BME280;6861;46.170;7.222;2023-02-04T03:06:49;97364.63;;;5.65;54.71
13581;BME280;6861;46.170;7.222;2023-02-04T03:09:18;97352.06;;;5.68;53.93
13581;BME280;6861;46.170;7.222;2023-02-04T03:11:47;97362.84;;;5.78;53.88
13581;BME280;6861;46.170;7.222;2023-02-04T03:14:15;97364.06;;;5.82;54.63
13581;BME280;6861;46.170;7.222;2023-02-04T03:16:46;97352.66;;;5.83;54.62
13581;BME280;6861;46.170;7.222;2023-02-04T03:19:15;97346.06;;;5.87;53.80
13581;BME280;6861;46.170;7.222;2023-02-04T03:21:43;97332.72;;;5.90;53.80
13581;BME280;6861;46.170;7.222;2023-02-04T03:24:12;97325.91;;;5.89;54.53
13581;BME280;6861;46.170;7.222;2023-02-04T03:26:40;97334.69;;;5.88;53.86
13581;BME280;6861;46.170;7.222;2023-02-04T03:29:09;97342.31;;;5.90;53.81
13581;BME280;6861;46.170;7.222;2023-02-04T03:31:37;97337.50;;;5.94;53.62
13581;BME280;6861;46.170;7.222;2023-02-04T03:34:07;97329.91;;;5.99;53.81
13581;BME280;6861;46.170;7.222;2023-02-04T03:36:35;97333.31;;;5.93;53.48
13581;BME280;6861;46.170;7.222;2023-02-04T03:39:03;97347.88;;;6.00;53.52
13581;BME280;6861;46.170;7.222;2023-02-04T03:41:31;97326.69;;;6.03;54.08
13581;BME280;6861;46.170;7.222;2023-02-04T03:43:59;97322.31;;;6.04;53.21
13581;BME280;6861;46.170;7.222;2023-02-04T03:46:27;97333.06;;;6.07;53.20
13581;BME280;6861;46.170;7.222;2023-02-04T03:48:55;97331.84;;;6.10;53.55
13581;BME280;6861;46.170;7.222;2023-02-04T03:51:25;97335.44;;;6.15;54.01
13581;BME280;6861;46.170;7.222;2023-02-04T03:53:52;97341.03;;;6.19;53.07
13581;BME280;6861;46.170;7.222;2023-02-04T03:56:21;97334.84;;;6.27;53.30
13581;BME280;6861;46.170;7.222;2023-02-04T03:58:49;97320.22;;;6.32;52.58
13581;BME280;6861;46.170;7.222;2023-02-04T04:01:17;97325.63;;;6.37;53.29
13581;BME280;6861;46.170;7.222;2023-02-04T04:03:45;97320.59;;;6.42;52.53
13581;BME280;6861;46.170;7.222;2023-02-04T04:06:12;97320.19;;;6.45;52.83
13581;BME280;6861;46.170;7.222;2023-02-04T04:08:42;97316.19;;;6.49;52.70
13581;BME280;6861;46.170;7.222;2023-02-04T04:11:10;97301.75;;;6.53;53.19
13581;BME280;6861;46.170;7.222;2023-02-04T04:13:38;97296.16;;;6.56;52.07
13581;BME280;6861;46.170;7.222;2023-02-04T04:16:06;97281.72;;;6.61;52.42
13581;BME280;6861;46.170;7.222;2023-02-04T04:18:35;97284.50;;;6.66;52.81
13581;BME280;6861;46.170;7.222;2023-02-04T04:21:03;97277.69;;;6.71;51.44
13581;BME280;6861;46.170;7.222;2023-02-04T04:23:31;97268.47;;;6.75;51.28
13581;BME280;6861;46.170;7.222;2023-02-04T04:26:00;97268.06;;;6.72;51.25
13581;BME280;6861;46.170;7.222;2023-02-04T04:28:28;97260.69;;;6.69;51.48
13581;BME280;6861;46.170;7.222;2023-02-04T04:30:56;97271.31;;;6.67;51.37
13581;BME280;6861;46.170;7.222;2023-02-04T04:33:25;97264.88;;;6.70;51.08
13581;BME280;6861;46.170;7.222;2023-02-04T04:35:53;97262.88;;;6.72;52.26
13581;BME280;6861;46.170;7.222;2023-02-04T04:38:21;97263.66;;;6.72;51.99
13581;BME280;6861;46.170;7.222;2023-02-04T04:40:49;97260.69;;;6.69;51.28
13581;BME280;6861;46.170;7.222;2023-02-04T04:43:18;97268.94;;;6.59;52.42
13581;BME280;6861;46.170;7.222;2023-02-04T04:45:46;97278.19;;;6.48;51.43
13581;BME280;6861;46.170;7.222;2023-02-04T04:48:14;97258.25;;;6.29;51.73
13581;BME280;6861;46.170;7.222;2023-02-04T04:50:42;97241.88;;;6.22;53.08
13581;BME280;6861;46.170;7.222;2023-02-04T04:53:10;97239.66;;;6.25;53.20
13581;BME280;6861;46.170;7.222;2023-02-04T04:55:39;97240.28;;;6.21;52.74
13581;BME280;6861;46.170;7.222;2023-02-04T04:58:07;97245.50;;;6.08;52.93
13581;BME280;6861;46.170;7.222;2023-02-04T05:00:36;97245.97;;;5.78;53.95
13581;BME280;6861;46.170;7.222;2023-02-04T05:03:05;97252.78;;;5.66;54.22
13581;BME280;6861;46.170;7.222;2023-02-04T05:05:33;97249.19;;;5.67;54.18
13581;BME280;6861;46.170;7.222;2023-02-04T05:08:05;97267.16;;;5.75;54.14
13581;BME280;6861;46.170;7.222;2023-02-04T05:10:36;97244.59;;;5.63;54.20
13581;BME280;6861;46.170;7.222;2023-02-04T05:13:04;97238.81;;;5.54;54.54
13581;BME280;6861;46.170;7.222;2023-02-04T05:15:32;97261.19;;;5.48;54.08
13581;BME280;6861;46.170;7.222;2023-02-04T05:18:02;97265.16;;;5.51;54.51
13581;BME280;6861;46.170;7.222;2023-02-04T05:20:30;97249.59;;;5.51;54.25
13581;BME280;6861;46.170;7.222;2023-02-04T05:22:58;97246.19;;;5.57;54.57
13581;BME280;6861;46.170;7.222;2023-02-04T05:25:30;97259.38;;;5.62;54.54
13581;BME280;6861;46.170;7.222;2023-02-04T05:27:58;97270.34;;;5.57;55.10
13581;BME280;6861;46.170;7.222;2023-02-04T05:30:26;97268.75;;;5.50;54.35
13581;BME280;6861;46.170;7.222;2023-02-04T05:32:54;97282.34;;;5.45;54.57
13581;BME280;6861;46.170;7.222;2023-02-04T05:35:23;97265.16;;;5.51;54.76
13581;BME280;6861;46.170;7.222;2023-02-04T05:37:51;97273.75;;;5.45;55.13
13581;BME280;6861;46.170;7.222;2023-02-04T05:40:19;97282.34;;;5.39;54.59
13581;BME280;6861;46.170;7.222;2023-02-04T05:42:48;97279.53;;;5.27;55.82
13581;BME280;6861;46.170;7.222;2023-02-04T05:45:16;97292.31;;;5.15;56.01
13581;BME280;6861;46.170;7.222;2023-02-04T05:47:45;97290.31;;;5.17;56.01
13581;BME280;6861;46.170;7.222;2023-02-04T05:50:13;97290.31;;;5.31;55.26
13581;BME280;6861;46.170;7.222;2023-02-04T05:52:43;97292.72;;;5.39;55.01
13581;BME280;6861;46.170;7.222;2023-02-04T05:55:11;97305.09;;;5.43;54.90
13581;BME280;6861;46.170;7.222;2023-02-04T05:57:39;97303.50;;;5.42;54.99
13581;BME280;6861;46.170;7.222;2023-02-04T06:00:10;97302.31;;;5.45;55.33
13581;BME280;6861;46.170;7.222;2023-02-04T06:02:38;97288.72;;;5.56;55.71
13581;BME280;6861;46.170;7.222;2023-02-04T06:05:06;97308.50;;;5.70;54.83
13581;BME280;6861;46.170;7.222;2023-02-04T06:07:34;97301.09;;;5.87;54.37
13581;BME280;6861;46.170;7.222;2023-02-04T06:10:04;97317.28;;;6.09;55.02
13581;BME280;6861;46.170;7.222;2023-02-04T06:12:32;97313.66;;;6.23;54.04
13581;BME280;6861;46.170;7.222;2023-02-04T06:15:00;97303.03;;;6.24;54.72
13581;BME280;6861;46.170;7.222;2023-02-04T06:17:28;97315.84;;;6.19;53.77
13581;BME280;6861;46.170;7.222;2023-02-04T06:19:56;97317.88;;;6.11;54.06
13581;BME280;6861;46.170;7.222;2023-02-04T06:22:24;97301.91;;;6.01;54.17
13581;BME280;6861;46.170;7.222;2023-02-04T06:24:52;97303.50;;;5.88;55.11
13581;BME280;6861;46.170;7.222;2023-02-04T06:27:22;97307.09;;;5.74;54.48
13581;BME280;6861;46.170;7.222;2023-02-04T06:29:50;97311.09;;;5.70;55.53
13581;BME280;6861;46.170;7.222;2023-02-04T06:32:18;97306.50;;;5.72;55.67
13581;BME280;6861;46.170;7.222;2023-02-04T06:34:47;97295.13;;;5.73;55.48
13581;BME280;6861;46.170;7.222;2023-02-04T06:37:15;97299.13;;;5.89;55.20
13581;BME280;6861;46.170;7.222;2023-02-04T06:39:43;97301.88;;;6.07;54.19
13581;BME280;6861;46.170;7.222;2023-02-04T06:42:11;97302.25;;;6.24;53.89
13581;BME280;6861;46.170;7.222;2023-02-04T06:44:40;97305.41;;;6.39;53.56
13581;BME280;6861;46.170;7.222;2023-02-04T06:47:08;97302.75;;;6.52;53.29
13581;BME280;6861;46.170;7.222;2023-02-04T06:49:36;97299.97;;;6.54;54.01
13581;BME280;6861;46.170;7.222;2023-02-04T06:52:04;97292.13;;;6.61;53.53
13581;BME280;6861;46.170;7.222;2023-02-04T06:54:32;97302.09;;;6.70;54.42
13581;BME280;6861;46.170;7.222;2023-02-04T06:57:00;97321.66;;;6.79;54.07
13581;BME280;6861;46.170;7.222;2023-02-04T06:59:32;97319.63;;;6.88;53.51
13581;BME280;6861;46.170;7.222;2023-02-04T07:02:03;97328.75;;;6.97;53.43
13581;BME280;6861;46.170;7.222;2023-02-04T07:04:31;97316.03;;;6.89;53.67
13581;BME280;6861;46.170;7.222;2023-02-04T07:06:59;97333.28;;;6.77;54.34
13581;BME280;6861;46.170;7.222;2023-02-04T07:09:27;97344.16;;;6.54;54.22
13581;BME280;6861;46.170;7.222;2023-02-04T07:11:55;97341.41;;;6.36;53.63
13581;BME280;6861;46.170;7.222;2023-02-04T07:14:23;97336.63;;;6.26;54.00
13581;BME280;6861;46.170;7.222;2023-02-04T07:16:51;97339.03;;;6.21;54.20
13581;BME280;6861;46.170;7.222;2023-02-04T07:19:21;97341.03;;;6.19;54.25
13581;BME280;6861;46.170;7.222;2023-02-04T07:21:49;97352.66;;;6.16;54.37
13581;BME280;6861;46.170;7.222;2023-02-04T07:24:19;97374.66;;;6.01;54.98
13581;BME280;6861;46.170;7.222;2023-02-04T07:26:47;97357.09;;;5.89;54.95
13581;BME280;6861;46.170;7.222;2023-02-04T07:29:16;97376.28;;;5.95;54.89
13581;BME280;6861;46.170;7.222;2023-02-04T07:31:51;97366.47;;;6.04;55.22
13581;BME280;6861;46.170;7.222;2023-02-04T07:34:21;97369.44;;;6.14;55.67
13581;BME280;6861;46.170;7.222;2023-02-04T07:36:49;97378.81;;;6.28;55.26
13581;BME280;6861;46.170;7.222;2023-02-04T07:39:17;97377.81;;;6.42;54.65
13581;BME280;6861;46.170;7.222;2023-02-04T07:41:45;97393.75;;;6.59;54.56
13581;BME280;6861;46.170;7.222;2023-02-04T07:44:13;97380.94;;;6.71;54.10
13581;BME280;6861;46.170;7.222;2023-02-04T07:46:41;97394.09;;;6.82;54.22
13581;BME280;6861;46.170;7.222;2023-02-04T07:49:09;97400.84;;;6.97;53.97
13581;BME280;6861;46.170;7.222;2023-02-04T07:51:39;97397.19;;;7.04;54.61
13581;BME280;6861;46.170;7.222;2023-02-04T07:54:07;97407.94;;;7.21;53.43
13581;BME280;6861;46.170;7.222;2023-02-04T07:56:35;97404.66;;;7.39;53.27
13581;BME280;6861;46.170;7.222;2023-02-04T07:59:03;97406.19;;;7.53;54.13
13581;BME280;6861;46.170;7.222;2023-02-04T08:01:31;97408.13;;;7.64;53.39
13581;BME280;6861;46.170;7.222;2023-02-04T08:03:59;97407.44;;;7.75;53.13
13581;BME280;6861;46.170;7.222;2023-02-04T08:06:27;97419.47;;;7.76;53.41
13581;BME280;6861;46.170;7.222;2023-02-04T08:08:57;97427.66;;;7.80;54.24
13581;BME280;6861;46.170;7.222;2023-02-04T08:11:25;97425.56;;;7.88;53.65
13581;BME280;6861;46.170;7.222;2023-02-04T08:13:53;97427.50;;;8.00;53.06
13581;BME280;6861;46.170;7.222;2023-02-04T08:16:21;97435.38;;;8.18;53.58
13581;BME280;6861;46.170;7.222;2023-02-04T08:18:49;97429.03;;;8.32;52.52
13581;BME280;6861;46.170;7.222;2023-02-04T08:21:17;97417.09;;;8.49;52.33
13581;BME280;6861;46.170;7.222;2023-02-04T08:23:45;97414.94;;;8.65;53.00
13581;BME280;6861;46.170;7.222;2023-02-04T08:26:15;97416.38;;;8.79;52.13
13581;BME280;6861;46.170;7.222;2023-02-04T08:28:43;97424.63;;;8.94;52.42
13581;BME280;6861;46.170;7.222;2023-02-04T08:31:11;97421.28;;;9.05;51.94
13581;BME280;6861;46.170;7.222;2023-02-04T08:33:39;97417.38;;;9.14;51.38
13581;BME280;6861;46.170;7.222;2023-02-04T08:36:07;97415.47;;;9.22;51.65
13581;BME280;6861;46.170;7.222;2023-02-04T08:38:35;97412.34;;;9.31;51.41
13581;BME280;6861;46.170;7.222;2023-02-04T08:41:03;97410.00;;;9.41;51.56
13581;BME280;6861;46.170;7.222;2023-02-04T08:43:33;97410.28;;;9.51;51.19
13581;BME280;6861;46.170;7.222;2023-02-04T08:46:02;97422.91;;;9.66;51.20
13581;BME280;6861;46.170;7.222;2023-02-04T08:48:30;97418.50;;;9.78;50.97
13581;BME280;6861;46.170;7.222;2023-02-04T08:50:58;97416.72;;;9.91;50.99
13581;BME280;6861;46.170;7.222;2023-02-04T08:53:26;97411.06;;;10.05;50.34
13581;BME280;6861;46.170;7.222;2023-02-04T08:55:54;97409.03;;;10.19;50.39
13581;BME280;6861;46.170;7.222;2023-02-04T08:58:22;97416.00;;;10.25;50.23
13581;BME280;6861;46.170;7.222;2023-02-04T09:00:52;97408.72;;;10.27;50.28
13581;BME280;6861;46.170;7.222;2023-02-04T09:03:20;97419.06;;;10.22;49.87
13581;BME280;6861;46.170;7.222;2023-02-04T09:05:48;97421.78;;;10.15;50.40
13581;BME280;6861;46.170;7.222;2023-02-04T09:08:16;97424.59;;;10.14;50.18
13581;BME280;6861;46.170;7.222;2023-02-04T09:10:44;97419.38;;;10.14;50.28
13581;BME280;6861;46.170;7.222;2023-02-04T09:13:12;97415.28;;;10.18;50.10
13581;BME280;6861;46.170;7.222;2023-02-04T09:15:40;97421.69;;;10.22;50.17
13581;BME280;6861;46.170;7.222;2023-02-04T09:18:10;97417.59;;;10.26;49.83
13581;BME280;6861;46.170;7.222;2023-02-04T09:20:42;97425.56;;;10.31;49.86
13581;BME280;6861;46.170;7.222;2023-02-04T09:23:11;97432.97;;;10.34;49.92
13581;BME280;6861;46.170;7.222;2023-02-04T09:25:40;97430.69;;;10.38;49.50
13581;BME280;6861;46.170;7.222;2023-02-04T09:28:09;97427.94;;;10.44;49.87
13581;BME280;6861;46.170;7.222;2023-02-04T09:30:39;97426.34;;;10.55;49.80
13581;BME280;6861;46.170;7.222;2023-02-04T09:33:10;97436.38;;;10.58;49.80
13581;BME280;6861;46.170;7.222;2023-02-04T09:35:39;97446.25;;;10.68;49.13
13581;BME280;6861;46.170;7.222;2023-02-04T09:38:07;97436.00;;;10.78;49.37
13581;BME280;6861;46.170;7.222;2023-02-04T09:40:37;97437.81;;;10.89;48.99
13581;BME280;6861;46.170;7.222;2023-02-04T09:43:11;97434.97;;;11.02;48.61
13581;BME280;6861;46.170;7.222;2023-02-04T09:45:40;97429.81;;;11.07;48.65
13581;BME280;6861;46.170;7.222;2023-02-04T09:48:12;97429.63;;;10.97;48.45
13581;BME280;6861;46.170;7.222;2023-02-04T09:50:41;97434.63;;;10.87;48.40
13581;BME280;6861;46.170;7.222;2023-02-04T09:53:12;97431.91;;;10.82;49.24
13581;BME280;6861;46.170;7.222;2023-02-04T09:55:44;97441.72;;;10.75;48.99
13581;BME280;6861;46.170;7.222;2023-02-04T09:58:15;97430.09;;;10.71;49.43
13581;BME280;6861;46.170;7.222;2023-02-04T10:00:44;97436.25;;;10.76;49.22
13581;BME280;6861;46.170;7.222;2023-02-04T10:03:15;97425.53;;;10.78;49.08
13581;BME280;6861;46.170;7.222;2023-02-04T10:05:45;97434.19;;;10.90;49.15
13581;BME280;6861;46.170;7.222;2023-02-04T10:08:15;97431.88;;;11.05;48.54
13581;BME280;6861;46.170;7.222;2023-02-04T10:10:44;97440.03;;;11.21;49.30
13581;BME280;6861;46.170;7.222;2023-02-04T10:13:17;97440.53;;;11.34;48.85
13581;BME280;6861;46.170;7.222;2023-02-04T10:15:47;97432.31;;;11.42;48.08
13581;BME280;6861;46.170;7.222;2023-02-04T10:18:22;97433.44;;;11.46;48.93
13581;BME280;6861;46.170;7.222;2023-02-04T10:20:54;97436.28;;;11.45;48.96
13581;BME280;6861;46.170;7.222;2023-02-04T10:23:24;97433.44;;;11.46;48.76
13581;BME280;6861;46.170;7.222;2023-02-04T10:25:53;97439.94;;;11.44;48.71
13581;BME280;6861;46.170;7.222;2023-02-04T10:28:32;97444.28;;;11.38;48.91
13581;BME280;6861;46.170;7.222;2023-02-04T10:31:00;97437.69;;;11.36;48.59
13581;BME280;6861;46.170;7.222;2023-02-04T10:33:29;97437.69;;;11.36;48.96
13581;BME280;6861;46.170;7.222;2023-02-04T10:35:58;97429.72;;;11.31;48.77
13581;BME280;6861;46.170;7.222;2023-02-04T10:38:26;97432.91;;;11.33;48.76
13581;BME280;6861;46.170;7.222;2023-02-04T10:41:01;97422.44;;;11.33;48.28
13581;BME280;6861;46.170;7.222;2023-02-04T10:43:29;97425.16;;;11.38;49.39
13581;BME280;6861;46.170;7.222;2023-02-04T10:46:00;97419.44;;;11.41;48.51
13581;BME280;6861;46.170;7.222;2023-02-04T10:48:38;97420.09;;;11.48;48.17
13581;BME280;6861;46.170;7.222;2023-02-04T10:51:10;97420.75;;;11.55;48.91
13581;BME280;6861;46.170;7.222;2023-02-04T10:53:39;97415.69;;;11.65;48.80
13581;BME280;6861;46.170;7.222;2023-02-04T10:56:24;97410.63;;;11.75;48.68
13581;BME280;6861;46.170;7.222;2023-02-04T10:58:52;97410.19;;;11.78;48.32
13581;BME280;6861;46.170;7.222;2023-02-04T11:01:20;97411.00;;;11.79;47.88
13581;BME280;6861;46.170;7.222;2023-02-04T11:03:50;97407.19;;;11.87;48.11
13581;BME280;6861;46.170;7.222;2023-02-04T11:06:21;97399.47;;;11.97;47.87
13581;BME280;6861;46.170;7.222;2023-02-04T11:08:50;97399.09;;;12.05;48.49
13581;BME280;6861;46.170;7.222;2023-02-04T11:11:24;97394.31;;;12.02;47.64
13581;BME280;6861;46.170;7.222;2023-02-04T11:14:00;97400.03;;;11.99;47.89
13581;BME280;6861;46.170;7.222;2023-02-04T11:16:31;97396.31;;;11.95;48.14
13581;BME280;6861;46.170;7.222;2023-02-04T11:19:04;97388.50;;;11.83;47.73
13581;BME280;6861;46.170;7.222;2023-02-04T11:21:42;97391.44;;;11.87;47.44
13581;BME280;6861;46.170;7.222;2023-02-04T11:24:23;97376.03;;;11.90;48.16
13581;BME280;6861;46.170;7.222;2023-02-04T11:26:52;97376.34;;;11.94;47.86
13581;BME280;6861;46.170;7.222;2023-02-04T11:29:33;97362.19;;;11.95;48.22
13581;BME280;6861;46.170;7.222;2023-02-04T11:32:06;97361.72;;;11.98;47.62
13581;BME280;6861;46.170;7.222;2023-02-04T11:35:05;97361.72;;;11.98;48.05
13581;BME280;6861;46.170;7.222;2023-02-04T11:37:36;97359.66;;;12.00;48.01
13581;BME280;6861;46.170;7.222;2023-02-04T11:40:26;97361.16;;;11.96;47.04
13581;BME280;6861;46.170;7.222;2023-02-04T11:42:56;97365.06;;;11.93;47.48
13581;BME280;6861;46.170;7.222;2023-02-04T11:45:28;97359.97;;;11.87;47.67
13581;BME280;6861;46.170;7.222;2023-02-04T11:47:58;97351.13;;;11.76;47.19
13581;BME280;6861;46.170;7.222;2023-02-04T11:50:31;97343.41;;;11.69;47.61
13581;BME280;6861;46.170;7.222;2023-02-04T11:53:00;97345.47;;;11.67;47.76
13581;BME280;6861;46.170;7.222;2023-02-04T11:55:29;97342.28;;;11.65;48.30
13581;BME280;6861;46.170;7.222;2023-02-04T11:57:58;97338.38;;;11.68;48.61
13581;BME280;6861;46.170;7.222;2023-02-04T12:00:29;97331.97;;;11.75;48.26
13581;BME280;6861;46.170;7.222;2023-02-04T12:02:59;97328.41;;;11.81;48.67
13581;BME280;6861;46.170;7.222;2023-02-04T12:05:38;97336.94;;;11.89;48.61
13581;BME280;6861;46.170;7.222;2023-02-04T12:08:21;97332.94;;;11.86;48.48
13581;BME280;6861;46.170;7.222;2023-02-04T12:10:59;97328.41;;;11.81;48.35
13581;BME280;6861;46.170;7.222;2023-02-04T12:13:29;97317.25;;;11.74;48.01
13581;BME280;6861;46.170;7.222;2023-02-04T12:15:59;97323.94;;;11.65;48.99
13581;BME280;6861;46.170;7.222;2023-02-04T12:18:28;97318.69;;;11.65;48.53
13581;BME280;6861;46.170;7.222;2023-02-04T12:20:58;97320.84;;;11.68;48.73
13581;BME280;6861;46.170;7.222;2023-02-04T12:23:27;97306.31;;;11.77;49.59
13581;BME280;6861;46.170;7.222;2023-02-04T12:25:56;97314.34;;;11.88;48.39
13581;BME280;6861;46.170;7.222;2023-02-04T12:28:25;97307.50;;;11.87;48.50
13581;BME280;6861;46.170;7.222;2023-02-04T12:30:53;97312.38;;;11.78;49.05
13581;BME280;6861;46.170;7.222;2023-02-04T12:33:22;97300.03;;;11.78;49.16
13581;BME280;6861;46.170;7.222;2023-02-04T12:35:50;97288.59;;;11.85;48.96
13581;BME280;6861;46.170;7.222;2023-02-04T12:38:20;97284.53;;;11.94;49.27
13581;BME280;6861;46.170;7.222;2023-02-04T12:40:48;97280.16;;;11.99;49.06
13581;BME280;6861;46.170;7.222;2023-02-04T12:43:16;97294.47;;;12.08;48.95
13581;BME280;6861;46.170;7.222;2023-02-04T12:45:44;97300.06;;;12.17;49.09
13581;BME280;6861;46.170;7.222;2023-02-04T12:48:15;97294.25;;;12.15;48.82
13581;BME280;6861;46.170;7.222;2023-02-04T12:50:43;97287.00;;;12.22;49.67
13581;BME280;6861;46.170;7.222;2023-02-04T12:53:11;97280.72;;;12.23;48.65
13581;BME280;6861;46.170;7.222;2023-02-04T12:55:41;97278.34;;;12.22;48.83
13581;BME280;6861;46.170;7.222;2023-02-04T12:58:09;97278.91;;;12.24;49.72
13581;BME280;6861;46.170;7.222;2023-02-04T13:00:37;97278.09;;;12.23;49.28
13581;BME280;6861;46.170;7.222;2023-02-04T13:03:05;97277.47;;;12.16;48.79
13581;BME280;6861;46.170;7.222;2023-02-04T13:05:33;97278.72;;;12.08;50.35
13581;BME280;6861;46.170;7.222;2023-02-04T13:08:01;97285.16;;;12.01;49.53
13581;BME280;6861;46.170;7.222;2023-02-04T13:10:29;97281.75;;;12.00;50.00
13581;BME280;6861;46.170;7.222;2023-02-04T13:12:59;97282.06;;;12.04;50.48
13581;BME280;6861;46.170;7.222;2023-02-04T13:15:30;97281.09;;;12.10;50.63
13581;BME280;6861;46.170;7.222;2023-02-04T13:17:58;97271.75;;;12.19;49.78
13581;BME280;6861;46.170;7.222;2023-02-04T13:20:26;97273.88;;;12.22;50.77
13581;BME280;6861;46.170;7.222;2023-02-04T13:22:54;97260.03;;;12.27;50.63
13581;BME280;6861;46.170;7.222;2023-02-04T13:25:22;97272.13;;;12.28;50.44
13581;BME280;6861;46.170;7.222;2023-02-04T13:27:50;97266.38;;;12.31;50.49